createdAt,value
2023-02-06T00:00:38.935Z,9870.16
2023-02-06T00:01:47.815Z,10333.91
2023-02-06T00:02:51.060Z,13550.97
2023-02-06T00:03:54.299Z,14412.59
2023-02-06T00:04:57.419Z,15239.94
2023-02-06T00:06:01.473Z,14680.28
2023-02-06T00:07:04.624Z,16335.53
2023-02-06T00:08:07.985Z,17114.09
2023-02-06T00:09:11.601Z,17503.31
2023-02-06T00:10:14.830Z,18803.00
2023-02-06T00:11:18.443Z,19356.72
2023-02-06T00:12:21.679Z,21417.47
2023-02-06T00:13:24.800Z,22653.22
2023-02-06T00:14:27.918Z,23872.47
2023-02-06T00:15:31.286Z,25083.22
2023-02-06T00:16:37.049Z,25238.94
2023-02-06T00:17:40.284Z,26900.31
2023-02-06T00:18:43.402Z,27841.84
2023-02-06T00:19:46.524Z,28836.13
2023-02-06T00:20:49.649Z,29569.25
2023-02-06T00:21:52.889Z,30023.19
2023-02-06T00:22:56.151Z,30892.22
2023-02-06T00:24:01.173Z,30530.53
2023-02-06T00:25:05.012Z,33247.78
2023-02-06T00:26:08.859Z,32927.66
2023-02-06T00:27:13.415Z,35568.69
2023-02-06T00:28:17.459Z,35880.56
2023-02-06T00:29:20.617Z,37703.19
2023-02-06T00:30:23.927Z,39192.00
2023-02-06T00:31:26.878Z,40355.50
2023-02-06T00:32:29.789Z,41701.31
2023-02-06T00:33:32.868Z,43562.72
2023-02-06T00:34:35.642Z,45474.94
2023-02-06T00:35:38.517Z,47255.28
2023-02-06T00:36:42.595Z,48376.31
2023-02-06T00:37:45.358Z,49873.03
2023-02-06T00:38:47.896Z,50729.81
2023-02-06T00:39:50.521Z,51580.09
2023-02-06T00:40:53.214Z,52059.44
2023-02-06T00:41:55.939Z,52722.00
2023-02-06T00:42:58.571Z,53435.22
2023-02-06T00:44:01.144Z,54032.25
2023-02-06T00:45:04.018Z,54034.28
2023-02-06T00:46:06.789Z,54622.84
2023-02-06T00:47:09.553Z,55418.19
2023-02-06T00:48:16.585Z,56199.88
2023-02-06T00:49:19.149Z,57021.41
2023-02-06T00:50:21.619Z,57681.13
2023-02-06T00:51:24.062Z,58343.47
2023-02-06T00:52:26.823Z,58051.00
2023-02-06T00:53:29.472Z,58823.69
2023-02-06T00:54:31.986Z,59587.19
2023-02-06T00:55:34.755Z,59840.25
2023-02-06T00:56:37.746Z,60642.53
2023-02-06T00:57:40.267Z,61109.63
2023-02-06T00:58:42.913Z,62284.69
2023-02-06T00:59:46.992Z,63389.81
2023-02-06T01:00:49.659Z,64028.38
2023-02-06T01:01:52.785Z,65017.06
2023-02-06T01:02:56.032Z,65407.06
2023-02-06T01:03:58.871Z,66129.31
2023-02-06T01:05:02.131Z,66853.97
2023-02-06T01:06:04.749Z,67321.13
2023-02-06T01:07:07.363Z,67875.63
2023-02-06T01:08:10.029Z,68166.63
2023-02-06T01:09:12.559Z,69390.84
2023-02-06T01:10:15.315Z,69896.56
2023-02-06T01:11:23.711Z,67237.94
2023-02-06T01:12:26.232Z,69758.69
2023-02-06T01:13:28.872Z,67846.31
2023-02-06T01:14:31.631Z,67131.19
2023-02-06T01:15:34.341Z,66463.00
2023-02-06T01:16:38.472Z,65959.72
2023-02-06T01:17:41.594Z,65365.72
2023-02-06T01:18:44.245Z,65967.00
2023-02-06T01:19:46.754Z,64239.91
2023-02-06T01:20:49.401Z,65093.38
2023-02-06T01:21:51.916Z,65314.91
2023-02-06T01:22:54.447Z,67259.69
2023-02-06T01:23:57.201Z,67159.81
2023-02-06T01:24:59.718Z,67401.38
2023-02-06T01:26:09.798Z,66897.38
2023-02-06T01:27:12.322Z,70556.50
2023-02-06T01:28:15.338Z,70756.69
2023-02-06T01:29:17.839Z,70515.06
2023-02-06T01:30:20.417Z,69839.78
2023-02-06T01:31:28.211Z,65315.72
2023-02-06T01:32:30.805Z,67141.59
2023-02-06T01:33:33.321Z,66362.41
2023-02-06T01:34:35.846Z,65944.19
2023-02-06T01:35:38.365Z,65749.97
2023-02-06T01:36:43.046Z,65189.88
2023-02-06T01:37:46.186Z,63893.59
2023-02-06T01:38:51.569Z,62479.25
2023-02-06T01:39:54.091Z,61802.06
2023-02-06T01:41:01.420Z,57543.22
2023-02-06T01:42:05.136Z,58128.81
2023-02-06T01:43:18.224Z,54263.97
2023-02-06T01:44:23.982Z,54162.59
2023-02-06T01:45:26.384Z,54891.31
2023-02-06T01:46:28.943Z,52983.66
2023-02-06T01:47:31.666Z,51150.56
2023-02-06T01:48:35.867Z,50020.97
2023-02-06T01:49:43.369Z,46352.53
2023-02-06T01:50:53.510Z,44818.25
2023-02-06T01:51:58.938Z,41861.69
2023-02-06T01:53:04.919Z,42473.44
2023-02-06T01:54:09.236Z,40850.84
2023-02-06T01:55:12.011Z,40497.59
2023-02-06T01:56:19.801Z,37656.06
2023-02-06T01:57:23.768Z,37429.38
2023-02-06T01:58:34.326Z,36502.47
2023-02-06T01:59:37.928Z,36940.44
2023-02-06T02:00:40.834Z,41171.94
2023-02-06T02:01:44.439Z,40697.59
2023-02-06T02:02:49.813Z,40207.28
2023-02-06T02:03:58.817Z,40554.81
2023-02-06T02:05:04.099Z,42539.34
2023-02-06T02:06:10.694Z,42185.34
2023-02-06T02:07:29.182Z,41002.56
2023-02-06T02:08:42.021Z,41785.41
2023-02-06T02:09:45.261Z,45956.34
2023-02-06T02:10:48.504Z,46096.03
2023-02-06T02:11:51.869Z,46288.31
2023-02-06T02:12:55.110Z,46049.44
2023-02-06T02:13:58.714Z,45266.72
2023-02-06T02:15:02.918Z,44819.34
2023-02-06T02:16:35.166Z,40046.28
2023-02-06T02:17:49.958Z,42254.50
2023-02-06T02:19:11.441Z,41545.28
2023-02-06T02:20:51.766Z,35950.22
2023-02-06T02:22:19.607Z,34381.00
2023-02-06T02:23:49.253Z,33624.25
2023-02-06T02:25:01.152Z,33308.06
2023-02-06T02:26:25.138Z,33558.03
2023-02-06T02:27:37.617Z,36956.31
2023-02-06T02:29:02.337Z,35258.38
2023-02-06T02:30:11.701Z,37801.41
2023-02-06T02:31:42.229Z,40586.63
2023-02-06T02:32:58.634Z,48213.66
2023-02-06T02:34:43.270Z,48141.34
2023-02-06T02:35:55.751Z,50896.50
2023-02-06T02:37:10.634Z,55532.09
2023-02-06T02:38:13.757Z,57017.38
2023-02-06T02:40:12.089Z,53643.09
2023-02-06T02:41:28.778Z,53478.63
2023-02-06T02:42:54.443Z,52488.22
2023-02-06T02:44:27.940Z,52065.06
2023-02-06T02:45:45.781Z,51012.66
2023-02-06T02:46:54.453Z,51447.84
2023-02-06T02:48:05.181Z,50584.41
2023-02-06T02:49:11.418Z,49089.50
2023-02-06T02:50:16.336Z,50789.50
2023-02-06T02:51:19.294Z,51871.19
2023-02-06T02:52:21.976Z,52024.03
2023-02-06T02:53:25.655Z,52323.59
2023-02-06T02:54:29.540Z,53689.91
2023-02-06T02:55:32.300Z,53353.53
2023-02-06T02:56:37.469Z,56671.66
2023-02-06T02:57:41.029Z,57059.59
2023-02-06T02:58:45.980Z,57349.19
2023-02-06T02:59:50.683Z,57416.72
2023-02-06T03:00:58.868Z,58079.25
2023-02-06T03:02:32.658Z,57606.66
2023-02-06T03:03:38.673Z,58687.47
2023-02-06T03:04:48.625Z,57929.50
2023-02-06T03:06:21.384Z,59054.16
2023-02-06T03:07:37.318Z,59156.34
2023-02-06T03:09:07.232Z,58357.22
2023-02-06T03:10:46.707Z,58077.38
2023-02-06T03:12:28.090Z,59402.19
2023-02-06T03:13:37.474Z,60754.47
2023-02-06T03:14:56.316Z,59515.25
2023-02-06T03:16:11.683Z,59274.78
2023-02-06T03:17:18.273Z,59394.00
2023-02-06T03:18:41.683Z,57063.47
2023-02-06T03:19:49.594Z,57020.59
2023-02-06T03:20:52.853Z,57881.16
2023-02-06T03:21:55.840Z,56974.53
2023-02-06T03:23:00.993Z,55569.97
2023-02-06T03:24:09.284Z,54521.22
2023-02-06T03:25:15.645Z,54004.78
2023-02-06T03:26:22.608Z,54369.97
2023-02-06T03:27:28.004Z,54844.75
2023-02-06T03:28:37.605Z,53614.31
2023-02-06T03:29:42.763Z,54131.66
2023-02-06T03:30:49.220Z,54585.66
2023-02-06T03:31:59.208Z,52596.03
2023-02-06T03:33:06.285Z,55078.03
2023-02-06T03:34:17.927Z,56575.25
2023-02-06T03:35:25.857Z,59630.22
2023-02-06T03:36:28.974Z,64438.59
2023-02-06T03:37:32.565Z,66160.66
2023-02-06T03:38:35.093Z,69694.41
2023-02-06T03:39:38.209Z,71056.03
2023-02-06T03:40:44.593Z,67746.97
2023-02-06T03:41:48.894Z,70815.38
2023-02-06T03:42:56.363Z,70185.47
2023-02-06T03:44:00.777Z,72974.22
2023-02-06T03:45:28.990Z,70666.25
2023-02-06T03:46:34.380Z,73124.28
2023-02-06T03:47:39.424Z,74266.28
2023-02-06T03:48:50.601Z,73731.59
2023-02-06T03:49:56.111Z,74956.91
2023-02-06T03:51:03.564Z,73023.78
2023-02-06T03:52:28.876Z,72026.13
2023-02-06T03:53:34.994Z,72921.03
2023-02-06T03:54:42.080Z,72366.78
2023-02-06T03:55:47.961Z,71949.16
2023-02-06T03:56:59.000Z,70425.03
2023-02-06T03:58:07.767Z,70021.09
2023-02-06T03:59:11.004Z,71856.53
2023-02-06T04:00:14.730Z,70545.50
2023-02-06T04:01:19.112Z,69204.94
2023-02-06T04:02:24.821Z,66957.63
2023-02-06T04:03:27.812Z,67265.25
2023-02-06T04:04:37.295Z,64088.28
2023-02-06T04:05:41.625Z,63092.97
2023-02-06T04:06:44.991Z,62576.34
2023-02-06T04:07:48.466Z,62095.00
2023-02-06T04:08:51.824Z,60648.88
2023-02-06T04:09:54.944Z,59513.66
2023-02-06T04:10:58.068Z,58120.41
2023-02-06T04:12:01.195Z,56651.19
2023-02-06T04:13:04.309Z,55796.66
2023-02-06T04:14:07.441Z,54321.50
2023-02-06T04:15:11.296Z,50609.84
2023-02-06T04:16:14.426Z,49801.50
2023-02-06T04:17:31.513Z,48579.41
2023-02-06T04:18:40.920Z,46969.50
2023-02-06T04:19:44.286Z,45662.25
2023-02-06T04:20:47.405Z,44957.31
2023-02-06T04:21:50.528Z,44167.13
2023-02-06T04:22:53.804Z,43422.78
2023-02-06T04:23:57.011Z,42727.19
2023-02-06T04:25:00.138Z,42123.72
2023-02-06T04:26:03.253Z,41712.25
2023-02-06T04:27:07.094Z,40393.75
2023-02-06T04:28:10.469Z,40379.69
2023-02-06T04:29:13.699Z,40004.09
2023-02-06T04:30:18.413Z,39545.16
2023-02-06T04:31:21.768Z,39514.88
2023-02-06T04:32:25.222Z,38821.25
2023-02-06T04:33:28.359Z,39345.66
2023-02-06T04:34:33.625Z,37963.56
2023-02-06T04:35:36.980Z,39632.25
2023-02-06T04:36:40.468Z,39193.34
2023-02-06T04:37:43.472Z,39320.38
2023-02-06T04:38:46.231Z,39399.06
2023-02-06T04:39:49.234Z,39049.16
2023-02-06T04:40:51.875Z,39093.50
2023-02-06T04:41:55.357Z,38258.38
2023-02-06T04:42:58.251Z,38885.09
2023-02-06T04:44:01.250Z,38383.00
2023-02-06T04:45:04.490Z,37143.41
2023-02-06T04:46:07.121Z,37643.88
2023-02-06T04:47:09.818Z,37013.34
2023-02-06T04:48:12.530Z,36580.59
2023-02-06T04:49:16.129Z,36060.47
2023-02-06T04:50:19.299Z,36334.94
2023-02-06T04:51:21.892Z,37268.94
2023-02-06T04:52:24.535Z,37406.78
2023-02-06T04:53:27.105Z,36656.81
2023-02-06T04:54:32.443Z,36727.97
2023-02-06T04:55:36.330Z,38712.63
2023-02-06T04:56:38.985Z,40733.47
2023-02-06T04:57:41.630Z,41538.84
2023-02-06T04:58:44.157Z,41658.25
2023-02-06T04:59:46.881Z,41046.25
2023-02-06T05:00:50.513Z,41448.66
2023-02-06T05:01:53.030Z,40809.75
2023-02-06T05:02:55.606Z,41724.19
2023-02-06T05:03:58.188Z,42480.63
2023-02-06T05:05:00.699Z,43263.78
2023-02-06T05:06:04.680Z,42841.44
2023-02-06T05:07:07.311Z,44242.22
2023-02-06T05:08:09.716Z,44487.69
2023-02-06T05:09:12.235Z,46010.75
2023-02-06T05:10:15.231Z,46617.88
2023-02-06T05:11:17.637Z,47235.38
2023-02-06T05:12:20.272Z,45858.78
2023-02-06T05:13:23.511Z,46917.44
2023-02-06T05:14:26.248Z,47784.38
2023-02-06T05:15:28.792Z,49469.13
2023-02-06T05:16:31.435Z,49891.00
2023-02-06T05:17:34.192Z,49986.63
2023-02-06T05:18:37.198Z,49628.06
2023-02-06T05:19:39.841Z,50530.31
2023-02-06T05:20:43.556Z,49350.44
2023-02-06T05:21:46.196Z,50077.97
2023-02-06T05:22:48.716Z,49561.94
2023-02-06T05:23:51.357Z,49371.19
2023-02-06T05:24:54.118Z,48028.50
2023-02-06T05:25:56.877Z,47374.81
2023-02-06T05:26:59.517Z,47527.78
2023-02-06T05:28:03.076Z,47319.88
2023-02-06T05:29:05.883Z,46628.69
2023-02-06T05:30:08.912Z,45494.03
2023-02-06T05:31:18.266Z,45593.41
2023-02-06T05:32:21.157Z,45135.19
2023-02-06T05:33:24.010Z,44095.59
2023-02-06T05:34:26.646Z,44166.03
2023-02-06T05:35:29.162Z,43915.59
2023-02-06T05:36:31.686Z,43321.88
2023-02-06T05:37:34.203Z,42883.97
2023-02-06T05:38:36.730Z,42527.13
2023-02-06T05:39:39.259Z,42025.63
2023-02-06T05:40:41.780Z,41701.31
2023-02-06T05:41:44.291Z,41488.31
2023-02-06T05:42:46.813Z,41485.81
2023-02-06T05:43:49.332Z,41773.94
2023-02-06T05:44:51.860Z,40997.41
2023-02-06T05:45:54.377Z,41762.78
2023-02-06T05:46:57.021Z,42238.75
2023-02-06T05:47:59.539Z,42252.56
2023-02-06T05:49:02.078Z,42762.75
2023-02-06T05:50:05.134Z,42832.09
2023-02-06T05:51:08.067Z,43195.22
2023-02-06T05:52:11.426Z,42064.88
2023-02-06T05:53:14.074Z,43398.72
2023-02-06T05:54:18.519Z,43094.06
2023-02-06T05:55:21.276Z,42646.47
2023-02-06T05:56:23.800Z,42808.69
2023-02-06T05:57:26.440Z,42269.09
2023-02-06T05:58:29.202Z,42126.72
2023-02-06T05:59:31.976Z,42217.22
2023-02-06T06:00:34.607Z,42321.09
2023-02-06T06:01:37.366Z,42949.16
2023-02-06T06:02:40.128Z,42912.19
2023-02-06T06:03:42.906Z,43721.69
2023-02-06T06:04:46.168Z,43115.50
2023-02-06T06:05:49.255Z,43948.94
2023-02-06T06:06:52.377Z,44340.69
2023-02-06T06:07:55.386Z,44533.66
2023-02-06T06:09:01.616Z,45237.72
2023-02-06T06:10:05.342Z,44752.44
2023-02-06T06:11:08.585Z,46087.94
2023-02-06T06:12:11.838Z,46753.06
2023-02-06T06:13:14.947Z,47056.72
2023-02-06T06:14:18.187Z,47865.34
2023-02-06T06:15:21.317Z,48840.00
2023-02-06T06:16:24.484Z,49495.25
2023-02-06T06:17:27.674Z,50478.16
2023-02-06T06:18:30.798Z,51302.00
2023-02-06T06:19:34.035Z,52028.63
2023-02-06T06:20:37.284Z,52595.25
2023-02-06T06:21:40.523Z,53870.59
2023-02-06T06:22:43.788Z,54358.47
2023-02-06T06:23:47.010Z,54858.19
2023-02-06T06:24:50.131Z,55410.63
2023-02-06T06:25:53.249Z,55799.16
2023-02-06T06:26:56.371Z,56359.47
2023-02-06T06:27:59.671Z,56827.69
2023-02-06T06:29:02.857Z,57210.50
2023-02-06T06:30:06.341Z,57015.63
2023-02-06T06:31:12.539Z,56139.41
2023-02-06T06:32:15.818Z,57809.78
2023-02-06T06:33:19.658Z,58378.81
2023-02-06T06:34:22.789Z,58977.97
2023-02-06T06:35:26.515Z,59083.25
2023-02-06T06:36:29.745Z,59782.16
2023-02-06T06:37:32.986Z,60621.81
2023-02-06T06:38:36.591Z,60109.44
2023-02-06T06:39:39.835Z,60949.31
2023-02-06T06:40:43.191Z,61155.50
2023-02-06T06:41:46.432Z,61791.16
2023-02-06T06:42:49.436Z,61741.66
2023-02-06T06:43:56.656Z,60378.13
2023-02-06T06:44:59.397Z,63363.91
2023-02-06T06:46:02.313Z,64084.03
2023-02-06T06:47:05.162Z,67618.78
2023-02-06T06:48:07.921Z,67690.03
2023-02-06T06:49:10.689Z,67820.09
2023-02-06T06:50:13.325Z,67589.69
2023-02-06T06:51:16.207Z,67851.13
2023-02-06T06:52:24.742Z,68320.00
2023-02-06T06:53:28.380Z,67742.50
2023-02-06T06:54:30.972Z,68404.03
2023-02-06T06:55:34.089Z,68427.88
2023-02-06T06:56:36.855Z,68348.22
2023-02-06T06:57:39.500Z,68499.31
2023-02-06T06:58:42.788Z,66696.88
2023-02-06T06:59:45.383Z,68772.66
2023-02-06T07:00:48.087Z,68712.91
2023-02-06T07:01:52.639Z,69145.16
2023-02-06T07:02:55.199Z,69682.06
2023-02-06T07:03:59.951Z,68302.47
2023-02-06T07:05:02.588Z,70125.78
2023-02-06T07:06:05.955Z,69433.22
2023-02-06T07:07:08.928Z,70291.88
2023-02-06T07:08:11.593Z,70905.31
2023-02-06T07:09:14.235Z,70930.13
2023-02-06T07:10:17.681Z,70349.66
2023-02-06T07:11:20.356Z,72076.09
2023-02-06T07:12:23.127Z,73853.44
2023-02-06T07:13:25.761Z,73693.78
2023-02-06T07:14:28.281Z,73730.41
2023-02-06T07:15:30.917Z,73714.03
2023-02-06T07:16:33.605Z,74147.94
2023-02-06T07:17:36.445Z,74009.84
2023-02-06T07:18:40.737Z,73423.75
2023-02-06T07:19:48.092Z,74255.88
2023-02-06T07:20:51.577Z,74155.94
2023-02-06T07:21:54.441Z,73931.19
2023-02-06T07:22:57.105Z,73852.53
2023-02-06T07:23:59.979Z,73734.13
2023-02-06T07:25:02.966Z,73673.53
2023-02-06T07:26:05.853Z,73368.78
2023-02-06T07:27:08.848Z,73057.06
2023-02-06T07:28:11.546Z,72847.13
2023-02-06T07:29:14.007Z,72437.00
2023-02-06T07:30:17.136Z,72223.19
2023-02-06T07:31:20.045Z,72351.53
2023-02-06T07:32:22.770Z,71986.75
2023-02-06T07:33:25.293Z,72013.56
2023-02-06T07:34:27.933Z,71626.22
2023-02-06T07:35:30.468Z,71580.88
2023-02-06T07:36:33.224Z,71116.59
2023-02-06T07:37:35.731Z,70995.44
2023-02-06T07:38:38.370Z,70733.88
2023-02-06T07:39:40.893Z,70663.00
2023-02-06T07:40:45.425Z,70241.44
2023-02-06T07:41:50.496Z,69871.94
2023-02-06T07:42:55.056Z,69639.13
2023-02-06T07:44:05.738Z,68902.19
2023-02-06T07:45:08.743Z,68213.13
2023-02-06T07:46:11.700Z,68287.78
2023-02-06T07:47:14.381Z,68527.84
2023-02-06T07:48:17.141Z,68216.28
2023-02-06T07:49:19.671Z,68035.19
2023-02-06T07:50:22.186Z,67647.22
2023-02-06T07:51:24.827Z,67449.34
2023-02-06T07:52:27.600Z,67180.81
2023-02-06T07:53:30.231Z,66774.63
2023-02-06T07:54:32.761Z,66450.06
2023-02-06T07:55:38.670Z,64770.09
2023-02-06T07:56:41.401Z,65662.84
2023-02-06T07:57:43.923Z,65155.16
2023-02-06T07:58:50.638Z,62527.06
2023-02-06T07:59:53.162Z,64530.06
2023-02-06T08:00:56.252Z,64341.06
2023-02-06T08:01:58.808Z,64584.47
2023-02-06T08:03:01.477Z,64356.91
2023-02-06T08:04:04.399Z,63637.03
2023-02-06T08:05:07.451Z,62748.44
2023-02-06T08:06:13.454Z,60987.75
2023-02-06T08:07:17.898Z,60970.44
2023-02-06T08:08:20.895Z,61437.69
2023-02-06T08:09:24.736Z,60627.88
2023-02-06T08:10:27.737Z,60496.94
2023-02-06T08:11:31.458Z,59843.50
2023-02-06T08:12:34.465Z,59169.53
2023-02-06T08:13:37.721Z,58463.81
2023-02-06T08:14:40.828Z,57849.41
2023-02-06T08:15:43.947Z,57123.75
2023-02-06T08:16:47.201Z,56145.97
2023-02-06T08:17:50.313Z,55458.47
2023-02-06T08:18:53.795Z,54553.25
2023-02-06T08:19:56.916Z,54194.97
2023-02-06T08:21:07.132Z,51120.41
2023-02-06T08:22:10.360Z,53152.63
2023-02-06T08:23:13.486Z,52429.22
2023-02-06T08:24:16.600Z,51375.28
2023-02-06T08:25:19.721Z,50684.19
2023-02-06T08:26:23.562Z,49501.63
2023-02-06T08:27:27.764Z,49983.91
2023-02-06T08:28:31.727Z,49100.41
2023-02-06T08:29:42.881Z,48172.63
2023-02-06T08:30:46.163Z,49024.03
2023-02-06T08:31:49.449Z,48903.84
2023-02-06T08:32:52.613Z,48592.91
2023-02-06T08:33:56.095Z,47678.44
2023-02-06T08:35:01.977Z,47917.19
2023-02-06T08:36:06.187Z,46326.59
2023-02-06T08:37:09.302Z,46215.84
2023-02-06T08:38:12.434Z,45885.84
2023-02-06T08:39:16.147Z,45300.72
2023-02-06T08:40:19.627Z,45293.56
2023-02-06T08:41:27.796Z,42790.16
2023-02-06T08:42:31.055Z,45047.06
2023-02-06T08:43:34.287Z,44517.06
2023-02-06T08:44:37.756Z,44221.38
2023-02-06T08:45:40.995Z,43375.13
2023-02-06T08:46:45.916Z,42236.00
2023-02-06T08:47:48.684Z,43211.13
2023-02-06T08:48:59.720Z,40176.84
2023-02-06T08:50:03.734Z,42229.25
2023-02-06T08:51:08.963Z,40963.78
2023-02-06T08:52:11.845Z,42328.34
2023-02-06T08:53:14.731Z,41899.91
2023-02-06T08:54:19.648Z,40146.94
2023-02-06T08:55:25.149Z,41999.50
2023-02-06T08:56:29.064Z,40741.75
2023-02-06T08:57:31.585Z,41734.00
2023-02-06T08:58:34.586Z,40810.06
2023-02-06T08:59:37.104Z,41484.00
2023-02-06T09:00:39.629Z,41030.66
2023-02-06T09:01:45.467Z,40260.47
2023-02-06T09:02:48.161Z,40814.22
2023-02-06T09:03:54.386Z,40396.09
2023-02-06T09:04:56.921Z,41175.03
2023-02-06T09:06:09.749Z,39570.03
2023-02-06T09:07:12.993Z,43077.03
2023-02-06T09:08:16.236Z,43461.19
2023-02-06T09:09:19.115Z,43825.09
2023-02-06T09:10:27.358Z,44652.22
2023-02-06T09:11:30.480Z,44702.66
2023-02-06T09:12:33.034Z,44649.28
2023-02-06T09:13:36.121Z,44224.56
2023-02-06T09:14:39.001Z,43060.84
2023-02-06T09:15:43.307Z,42995.13
2023-02-06T09:16:46.238Z,42724.03
2023-02-06T09:17:49.120Z,42525.53
2023-02-06T09:18:54.188Z,40179.44
2023-02-06T09:19:57.037Z,41050.59
2023-02-06T09:21:11.918Z,36996.06
2023-02-06T09:22:14.317Z,38855.34
2023-02-06T09:23:18.161Z,36541.28
2023-02-06T09:24:21.137Z,36832.38
2023-02-06T09:25:23.677Z,36137.44
2023-02-06T09:26:29.179Z,34192.19
2023-02-06T09:27:31.723Z,34872.03
2023-02-06T09:28:34.362Z,33400.94
2023-02-06T09:29:36.888Z,32443.06
2023-02-06T09:30:39.416Z,31477.72
2023-02-06T09:31:43.163Z,28228.06
2023-02-06T09:32:45.645Z,28902.41
2023-02-06T09:33:48.175Z,27413.31
2023-02-06T09:34:50.810Z,25545.66
2023-02-06T09:36:14.103Z,20030.16
2023-02-06T09:37:16.856Z,21231.59
2023-02-06T09:38:19.365Z,18729.94
2023-02-06T09:39:22.042Z,17210.09
2023-02-06T09:40:28.129Z,13382.59
2023-02-06T09:41:46.404Z,11055.53
2023-02-06T09:42:49.010Z,9954.56
2023-02-06T09:44:13.488Z,6468.09
2023-02-06T09:45:20.698Z,3978.53
2023-02-06T09:46:28.628Z,3587.59
2023-02-06T09:47:34.742Z,1472.72
2023-02-06T09:48:39.537Z,-521.16
2023-02-06T09:49:50.210Z,-2726.59
2023-02-06T09:51:23.627Z,-3889.28
2023-02-06T09:52:46.977Z,-5235.94
2023-02-06T09:53:49.499Z,-2849.31
2023-02-06T09:55:23.459Z,-6196.25
2023-02-06T09:56:25.871Z,-3957.47
2023-02-06T09:57:31.507Z,-4917.88
2023-02-06T09:58:47.235Z,-7797.06
2023-02-06T10:00:03.080Z,-8117.25
2023-02-06T10:01:31.677Z,-8758.16
2023-02-06T10:02:58.883Z,-8438.75
2023-02-06T10:04:40.519Z,-9079.13
2023-02-06T10:06:04.878Z,-9721.75
2023-02-06T10:07:19.042Z,-7801.63
2023-02-06T10:08:26.730Z,-11003.31
2023-02-06T10:09:56.606Z,-11644.91
2023-02-06T10:11:05.729Z,-11326.44
2023-02-06T10:12:46.410Z,-12283.34
2023-02-06T10:13:57.350Z,-12925.97
2023-02-06T10:15:07.657Z,-13568.81
2023-02-06T10:16:26.289Z,-12610.50
2023-02-06T10:17:36.700Z,-14216.81
2023-02-06T10:18:46.779Z,-14541.50
2023-02-06T10:19:58.545Z,-15510.00
2023-02-06T10:21:13.065Z,-15513.06
2023-02-06T10:22:21.475Z,-16791.44
2023-02-06T10:23:34.676Z,-17755.25
2023-02-06T10:24:46.909Z,-18399.59
2023-02-06T10:26:17.512Z,-18719.06
2023-02-06T10:27:21.235Z,-18391.13
2023-02-06T10:28:28.078Z,-19998.09
2023-02-06T10:29:33.478Z,-20324.06
2023-02-06T10:31:30.079Z,-20334.44
2023-02-06T10:32:43.813Z,-20332.22
2023-02-06T10:34:07.329Z,-20336.09
2023-02-06T10:35:35.234Z,-20331.09
2023-02-06T10:37:00.385Z,-20330.91
2023-02-06T10:38:34.462Z,-20333.88
2023-02-06T10:39:52.345Z,-20332.22
2023-02-06T10:41:19.222Z,-20325.56
2023-02-06T10:42:59.191Z,-20332.59
2023-02-06T10:44:07.471Z,-20325.38
2023-02-06T10:45:28.476Z,-20326.31
2023-02-06T10:46:49.737Z,-20327.78
2023-02-06T10:48:18.636Z,-20330.75
2023-02-06T10:49:52.960Z,-20338.50
2023-02-06T10:51:16.725Z,-20347.16
2023-02-06T10:52:33.525Z,-20354.19
2023-02-06T10:53:49.844Z,-20360.28
2023-02-06T10:54:59.568Z,-20366.94
2023-02-06T10:56:10.250Z,-20369.31
2023-02-06T10:57:19.974Z,-20365.81
2023-02-06T10:58:28.906Z,-20362.31
2023-02-06T10:59:39.707Z,-20359.19
2023-02-06T11:00:46.084Z,-20359.19
2023-02-06T11:01:56.153Z,-20356.78
2023-02-06T11:03:07.411Z,-20356.97
2023-02-06T11:04:32.869Z,-20348.84
2023-02-06T11:05:36.813Z,-20342.94
2023-02-06T11:06:42.717Z,-20340.72
2023-02-06T11:07:53.994Z,-20336.09
2023-02-06T11:08:56.632Z,-20328.34
2023-02-06T11:09:59.874Z,-20327.06
2023-02-06T11:11:19.707Z,-20327.41
2023-02-06T11:12:29.513Z,-20321.88
2023-02-06T11:13:36.480Z,-20321.13
2023-02-06T11:14:40.915Z,-20317.81
2023-02-06T11:16:01.614Z,-20317.81
2023-02-06T11:17:04.562Z,-20317.09
2023-02-06T11:18:10.693Z,-20314.50
2023-02-06T11:19:20.408Z,-20316.91
2023-02-06T11:20:26.760Z,-20319.28
2023-02-06T11:22:09.810Z,-20325.38
2023-02-06T11:23:21.004Z,-20326.69
2023-02-06T11:24:25.445Z,-20326.50
2023-02-06T11:25:31.545Z,-20329.44
2023-02-06T11:26:34.189Z,-20324.84
2023-02-06T11:27:36.856Z,-20325.38
2023-02-06T11:28:52.955Z,-20326.84
2023-02-06T11:29:55.805Z,-20323.34
2023-02-06T11:31:01.705Z,-20324.47
2023-02-06T11:32:24.737Z,-20326.13
2023-02-06T11:33:49.686Z,-20328.53
2023-02-06T11:34:59.542Z,-20331.47
2023-02-06T11:36:04.821Z,-20333.16
2023-02-06T11:37:38.299Z,-20336.28
2023-02-06T11:38:54.853Z,-20334.25
2023-02-06T11:40:17.058Z,-20335.16
2023-02-06T11:41:19.703Z,-20333.16
2023-02-06T11:42:24.875Z,-20330.38
2023-02-06T11:43:31.821Z,-20327.78
2023-02-06T11:44:41.181Z,-20324.09
2023-02-06T11:45:44.606Z,-20321.50
2023-02-06T11:46:47.175Z,-20322.06
2023-02-06T11:47:50.061Z,-20319.13
2023-02-06T11:48:59.670Z,-20318.19
2023-02-06T11:50:14.065Z,-20320.03
2023-02-06T11:51:17.060Z,-20315.59
2023-02-06T11:52:34.232Z,-20313.75
2023-02-06T11:53:38.397Z,-20310.06
2023-02-06T11:54:40.945Z,-20308.22
2023-02-06T11:55:44.665Z,-20309.31
2023-02-06T11:56:59.067Z,-20314.50
2023-02-06T11:58:23.078Z,-20344.78
2023-02-06T11:59:27.270Z,-20377.63
2023-02-06T12:00:31.008Z,-20414.53
2023-02-06T12:01:42.808Z,-20445.38
2023-02-06T12:02:52.121Z,-20466.25
2023-02-06T12:03:58.959Z,-20474.19
2023-02-06T12:05:13.359Z,-20480.06
2023-02-06T12:06:22.021Z,-15648.28
2023-02-06T12:07:52.388Z,-1112.75
2023-02-06T12:08:58.489Z,3420.84
2023-02-06T12:10:03.906Z,20311.56
2023-02-06T12:11:14.335Z,27171.69
2023-02-06T12:12:28.377Z,67176.88
2023-02-06T12:13:37.733Z,107553.31
2023-02-06T12:14:45.420Z,140223.63
2023-02-06T12:15:53.538Z,99477.22
2023-02-06T12:16:58.980Z,97445.84
2023-02-06T12:18:10.044Z,85831.88
2023-02-06T12:19:19.868Z,81834.19
2023-02-06T12:20:30.307Z,75889.09
2023-02-06T12:21:44.993Z,67021.38
2023-02-06T12:22:54.193Z,58511.53
2023-02-06T12:24:05.233Z,61795.25
2023-02-06T12:25:25.754Z,71991.66
2023-02-06T12:26:34.039Z,70336.09
2023-02-06T12:27:39.759Z,68361.91
2023-02-06T12:28:52.759Z,74634.78
2023-02-06T12:30:06.808Z,78566.53
2023-02-06T12:31:45.918Z,81498.97
2023-02-06T12:32:54.445Z,78187.16
2023-02-06T12:34:10.291Z,83102.22
2023-02-06T12:35:16.415Z,89370.47
2023-02-06T12:36:22.648Z,95973.34
2023-02-06T12:37:31.911Z,112552.22
2023-02-06T12:38:50.372Z,99647.75
2023-02-06T12:39:53.617Z,95360.91
2023-02-06T12:41:03.094Z,102347.03
2023-02-06T12:42:32.521Z,124309.56
2023-02-06T12:43:38.523Z,147771.47
2023-02-06T12:44:49.420Z,147746.03
2023-02-06T12:46:00.399Z,147755.69
2023-02-06T12:47:10.663Z,147738.78
2023-02-06T12:48:26.031Z,147702.47
2023-02-06T12:49:54.471Z,147628.59
2023-02-06T12:51:06.354Z,147617.72
2023-02-06T12:52:41.757Z,147595.91
2023-02-06T12:53:57.601Z,147581.41
2023-02-06T12:55:42.836Z,147547.47
2023-02-06T12:56:48.244Z,147545.06
2023-02-06T12:57:51.365Z,147547.47
2023-02-06T12:59:20.162Z,147632.25
2023-02-06T13:00:47.296Z,147700.03
2023-02-06T13:02:32.828Z,147827.13
2023-02-06T13:03:43.211Z,147893.78
2023-02-06T13:04:47.342Z,148017.38
2023-02-06T13:05:54.995Z,147994.38
2023-02-06T13:07:08.178Z,147990.69
2023-02-06T13:08:26.539Z,148012.53